createdAt,value
2022-08-29T00:00:34.878Z,17.90
2022-08-29T00:02:41.961Z,18.00
2022-08-29T00:04:44.343Z,17.90
2022-08-29T00:06:46.442Z,18.00
2022-08-29T00:08:48.259Z,18.00
2022-08-29T00:10:49.973Z,18.00
2022-08-29T00:12:52.185Z,18.10
2022-08-29T00:14:54.025Z,18.20
2022-08-29T00:16:58.421Z,18.20
2022-08-29T00:19:05.525Z,18.20
2022-08-29T00:21:07.533Z,18.20
2022-08-29T00:23:09.724Z,18.20
2022-08-29T00:25:15.666Z,18.20
2022-08-29T00:27:17.391Z,18.30
2022-08-29T00:29:19.115Z,18.30
2022-08-29T00:31:23.217Z,18.40
2022-08-29T00:33:25.020Z,18.40
2022-08-29T00:35:36.047Z,18.40
2022-08-29T00:37:37.977Z,18.60
2022-08-29T00:39:39.863Z,18.40
2022-08-29T00:41:41.617Z,18.50
2022-08-29T00:43:44.690Z,18.60
2022-08-29T00:46:30.711Z,18.60
2022-08-29T00:48:35.559Z,18.70
2022-08-29T00:51:01.019Z,18.60
2022-08-29T00:53:06.028Z,18.90
2022-08-29T00:55:12.189Z,18.80
2022-08-29T00:57:14.346Z,18.90
2022-08-29T00:59:21.305Z,18.90
2022-08-29T01:01:23.976Z,18.90
2022-08-29T01:03:27.109Z,19.00
2022-08-29T01:05:29.093Z,19.10
2022-08-29T01:07:30.885Z,19.00
2022-08-29T01:09:37.829Z,19.20
2022-08-29T01:11:58.505Z,19.10
2022-08-29T01:14:01.284Z,19.10
2022-08-29T01:16:05.165Z,19.20
2022-08-29T01:18:09.091Z,19.30
2022-08-29T01:20:32.924Z,19.20
2022-08-29T01:23:15.605Z,19.30
2022-08-29T01:25:24.300Z,19.20
2022-08-29T01:27:32.372Z,19.30
2022-08-29T01:29:34.855Z,19.30
2022-08-29T01:31:57.352Z,19.30
2022-08-29T01:33:59.603Z,19.50
2022-08-29T01:36:01.508Z,19.40
2022-08-29T01:38:03.317Z,19.50
2022-08-29T01:40:05.946Z,19.50
2022-08-29T01:42:17.326Z,19.50
2022-08-29T01:44:22.094Z,19.50
2022-08-29T01:46:31.117Z,19.60
2022-08-29T01:48:33.175Z,19.60
2022-08-29T01:50:34.844Z,19.50
2022-08-29T01:52:44.263Z,19.60
2022-08-29T01:54:46.468Z,19.60
2022-08-29T01:56:51.994Z,19.70
2022-08-29T01:58:58.891Z,19.80
2022-08-29T02:01:00.624Z,19.70
2022-08-29T02:03:04.551Z,19.80
2022-08-29T02:05:06.439Z,19.80
2022-08-29T02:07:12.436Z,19.90
2022-08-29T02:09:14.937Z,19.80
2022-08-29T02:11:17.859Z,19.90
2022-08-29T02:13:19.583Z,20.50
2022-08-29T02:15:21.683Z,20.00
2022-08-29T02:17:23.827Z,20.00
2022-08-29T02:19:26.661Z,20.10
2022-08-29T02:21:29.938Z,20.20
2022-08-29T02:23:33.607Z,20.10
2022-08-29T02:25:41.397Z,20.20
2022-08-29T02:27:45.508Z,20.20
2022-08-29T02:29:47.339Z,20.20
2022-08-29T02:31:49.195Z,20.20
2022-08-29T02:33:53.034Z,20.20
2022-08-29T02:35:55.403Z,20.20
2022-08-29T02:37:57.190Z,20.20
2022-08-29T02:39:58.917Z,20.10
2022-08-29T02:42:02.962Z,20.10
2022-08-29T02:44:07.217Z,20.10
2022-08-29T02:46:12.515Z,20.20
2022-08-29T02:48:15.209Z,20.10
2022-08-29T02:50:17.317Z,20.30
2022-08-29T02:52:19.040Z,20.30
2022-08-29T02:54:20.717Z,20.30
2022-08-29T02:56:27.177Z,20.30
2022-08-29T02:58:30.302Z,20.30
2022-08-29T03:00:34.397Z,20.20
2022-08-29T03:02:36.452Z,20.30
2022-08-29T03:04:38.152Z,20.30
2022-08-29T03:06:42.528Z,20.30
2022-08-29T03:08:46.873Z,20.40
2022-08-29T03:10:48.699Z,20.40
2022-08-29T03:12:52.104Z,20.40
2022-08-29T03:14:56.200Z,20.40
2022-08-29T03:16:58.087Z,20.40
2022-08-29T03:18:59.863Z,20.40
2022-08-29T03:21:04.637Z,20.40
2022-08-29T03:23:06.645Z,20.70
2022-08-29T03:25:12.234Z,20.40
2022-08-29T03:27:13.899Z,20.50
2022-08-29T03:29:15.610Z,20.50
2022-08-29T03:31:17.384Z,20.50
2022-08-29T03:33:21.422Z,20.50
2022-08-29T03:35:28.183Z,20.50
2022-08-29T03:37:29.943Z,20.60
2022-08-29T03:39:34.832Z,20.50
2022-08-29T03:41:38.364Z,20.60
2022-08-29T03:43:42.267Z,20.60
2022-08-29T03:45:46.210Z,20.90
2022-08-29T03:47:47.964Z,20.70
2022-08-29T03:49:51.062Z,20.60
2022-08-29T03:51:59.231Z,20.60
2022-08-29T03:54:01.075Z,20.70
2022-08-29T03:56:04.267Z,20.70
2022-08-29T03:58:06.553Z,20.70
2022-08-29T04:00:13.804Z,20.70
2022-08-29T04:02:15.630Z,20.90
2022-08-29T04:04:38.919Z,20.60
2022-08-29T04:06:41.618Z,20.70
2022-08-29T04:08:45.084Z,20.80
2022-08-29T04:10:46.774Z,20.80
2022-08-29T04:12:54.503Z,20.90
2022-08-29T04:14:56.851Z,21.00
2022-08-29T04:16:58.561Z,21.50
2022-08-29T04:19:00.672Z,21.00
2022-08-29T04:21:02.739Z,21.00
2022-08-29T04:23:09.832Z,21.10
2022-08-29T04:25:13.612Z,21.20
2022-08-29T04:27:17.642Z,21.30
2022-08-29T04:29:19.748Z,21.20
2022-08-29T04:31:24.563Z,21.30
2022-08-29T04:33:27.097Z,21.30
2022-08-29T04:35:31.595Z,21.30
2022-08-29T04:37:35.529Z,21.40
2022-08-29T04:39:37.870Z,21.40
2022-08-29T04:41:40.522Z,21.40
2022-08-29T04:43:42.762Z,21.40
2022-08-29T04:45:46.597Z,21.50
2022-08-29T04:47:48.328Z,22.00
2022-08-29T04:49:55.370Z,21.50
2022-08-29T04:52:02.621Z,21.60
2022-08-29T04:54:06.643Z,21.70
2022-08-29T04:56:10.721Z,21.70
2022-08-29T04:58:14.530Z,21.80
2022-08-29T05:00:20.136Z,21.80
2022-08-29T05:02:22.739Z,21.70
2022-08-29T05:04:25.230Z,21.80
2022-08-29T05:06:27.482Z,21.80
2022-08-29T05:08:29.947Z,21.80
2022-08-29T05:10:32.765Z,21.90
2022-08-29T05:12:34.663Z,22.00
2022-08-29T05:14:38.558Z,22.00
2022-08-29T05:16:42.616Z,22.00
2022-08-29T05:18:46.181Z,22.00
2022-08-29T05:20:49.451Z,22.60
2022-08-29T05:22:51.168Z,22.10
2022-08-29T05:25:00.573Z,22.10
2022-08-29T05:27:07.973Z,22.10
2022-08-29T05:29:11.682Z,22.20
2022-08-29T05:31:14.673Z,22.20
2022-08-29T05:33:17.140Z,22.30
2022-08-29T05:35:21.098Z,22.20
2022-08-29T05:37:23.354Z,22.10
2022-08-29T05:39:25.112Z,22.20
2022-08-29T05:41:29.419Z,22.10
2022-08-29T05:43:40.254Z,22.00
2022-08-29T05:45:42.881Z,22.00
2022-08-29T05:47:45.743Z,22.00
2022-08-29T05:49:48.373Z,22.00
2022-08-29T05:51:53.438Z,21.80
2022-08-29T05:53:55.187Z,21.90
2022-08-29T05:55:57.017Z,21.80
2022-08-29T05:57:59.107Z,21.80
2022-08-29T06:00:00.868Z,21.70
2022-08-29T06:02:05.780Z,21.80
2022-08-29T06:04:07.876Z,21.90
2022-08-29T06:06:09.645Z,21.80
2022-08-29T06:08:11.509Z,21.80
2022-08-29T06:10:15.547Z,21.80
2022-08-29T06:12:17.283Z,21.70
2022-08-29T06:14:19.694Z,21.70
2022-08-29T06:16:24.028Z,21.80
2022-08-29T06:18:35.385Z,21.80
2022-08-29T06:20:41.479Z,21.70
2022-08-29T06:22:43.180Z,21.80
2022-08-29T06:24:45.865Z,21.90
2022-08-29T06:26:49.021Z,21.60
2022-08-29T06:28:50.714Z,21.70
2022-08-29T06:30:52.494Z,21.70
2022-08-29T06:32:54.450Z,21.70
2022-08-29T06:34:56.160Z,21.80
2022-08-29T06:36:59.488Z,21.80
2022-08-29T06:39:04.277Z,21.80
2022-08-29T06:41:08.280Z,21.80
2022-08-29T06:43:17.017Z,21.80
2022-08-29T06:45:18.717Z,21.90
2022-08-29T06:47:20.394Z,21.80
2022-08-29T06:49:22.850Z,21.70
2022-08-29T06:51:26.163Z,21.60
2022-08-29T06:53:32.306Z,21.50
2022-08-29T06:55:35.619Z,21.60
2022-08-29T06:57:42.226Z,21.70
2022-08-29T06:59:43.918Z,21.50
2022-08-29T07:01:48.141Z,21.50
2022-08-29T07:03:52.499Z,21.40
2022-08-29T07:05:54.359Z,21.50
2022-08-29T07:07:56.239Z,21.50
2022-08-29T07:09:58.096Z,21.60
2022-08-29T07:12:00.169Z,21.60
2022-08-29T07:14:08.440Z,21.80
2022-08-29T07:16:18.158Z,21.80
2022-08-29T07:18:20.692Z,21.90
2022-08-29T07:20:23.617Z,21.90
2022-08-29T07:22:28.258Z,21.70
2022-08-29T07:24:32.478Z,21.60
2022-08-29T07:26:41.260Z,21.40
2022-08-29T07:28:47.627Z,21.30
2022-08-29T07:31:02.358Z,21.30
2022-08-29T07:33:04.884Z,21.20
2022-08-29T07:35:10.407Z,21.20
2022-08-29T07:37:17.455Z,21.10
2022-08-29T07:39:19.809Z,21.30
2022-08-29T07:41:21.577Z,21.50
2022-08-29T07:43:27.748Z,21.90
2022-08-29T07:45:29.751Z,21.30
2022-08-29T07:47:32.478Z,21.30
2022-08-29T07:49:41.213Z,21.20
2022-08-29T07:51:44.487Z,21.00
2022-08-29T07:53:47.087Z,20.80
2022-08-29T07:55:48.854Z,20.80
2022-08-29T07:57:52.324Z,20.50
2022-08-29T07:59:54.050Z,20.50
2022-08-29T08:01:55.896Z,20.40
2022-08-29T08:03:58.324Z,20.30
2022-08-29T08:06:06.874Z,20.00
2022-08-29T08:08:14.803Z,20.10
2022-08-29T08:10:19.539Z,20.20
2022-08-29T08:12:22.972Z,20.20
2022-08-29T08:14:34.613Z,20.00
2022-08-29T08:16:37.599Z,19.90
2022-08-29T08:18:41.177Z,19.90
2022-08-29T08:20:48.196Z,19.90
2022-08-29T08:22:49.928Z,20.00
2022-08-29T08:24:51.665Z,19.80
2022-08-29T08:26:53.968Z,19.90
2022-08-29T08:28:55.682Z,20.00
2022-08-29T08:31:03.621Z,20.10
2022-08-29T08:33:07.828Z,20.00
2022-08-29T08:35:12.954Z,19.70
2022-08-29T08:37:27.773Z,19.70
2022-08-29T08:39:29.943Z,19.70
2022-08-29T08:41:43.468Z,19.10
2022-08-29T08:43:56.634Z,18.90
2022-08-29T08:45:58.429Z,18.80
2022-08-29T08:48:10.386Z,18.70
2022-08-29T08:50:21.401Z,18.90
2022-08-29T08:52:34.501Z,19.00
2022-08-29T08:54:49.574Z,19.10
2022-08-29T08:57:01.386Z,18.80
2022-08-29T08:59:10.265Z,18.70
2022-08-29T09:02:07.575Z,18.60
2022-08-29T09:04:27.819Z,18.10
2022-08-29T09:06:40.021Z,18.10
2022-08-29T09:08:50.183Z,17.70
2022-08-29T09:11:06.638Z,17.60
2022-08-29T09:13:26.054Z,17.60
2022-08-29T09:15:52.767Z,17.40
2022-08-29T09:18:05.083Z,17.10
2022-08-29T09:20:13.234Z,17.00
2022-08-29T09:22:26.525Z,16.60
2022-08-29T09:24:44.258Z,16.30
2022-08-29T09:26:46.075Z,16.60
2022-08-29T09:28:50.845Z,16.70
2022-08-29T09:31:14.503Z,16.30
2022-08-29T09:33:17.445Z,16.60
2022-08-29T09:35:25.386Z,15.60
2022-08-29T09:37:34.232Z,15.50
2022-08-29T09:39:36.763Z,15.20
2022-08-29T09:41:39.052Z,15.20
2022-08-29T09:43:40.733Z,15.00
2022-08-29T09:46:23.418Z,15.00
2022-08-29T09:48:25.335Z,14.90
2022-08-29T09:50:29.293Z,15.00
2022-08-29T09:52:31.623Z,14.60
2022-08-29T09:54:35.886Z,14.10
2022-08-29T09:56:40.789Z,14.30
2022-08-29T09:58:45.161Z,13.90
2022-08-29T10:01:11.831Z,13.70
2022-08-29T10:03:22.695Z,14.20
2022-08-29T10:05:42.427Z,13.60
2022-08-29T10:07:51.493Z,13.30
2022-08-29T10:10:02.075Z,13.00
2022-08-29T10:12:12.467Z,13.40
2022-08-29T10:14:26.155Z,13.00
2022-08-29T10:16:27.954Z,12.70
2022-08-29T10:18:57.931Z,13.00
2022-08-29T10:21:07.946Z,13.10
2022-08-29T10:23:26.639Z,12.30
2022-08-29T10:25:41.561Z,12.40
2022-08-29T10:28:13.762Z,12.50
2022-08-29T10:30:21.518Z,12.50
2022-08-29T10:32:51.623Z,12.50
2022-08-29T10:35:27.550Z,13.00
2022-08-29T10:37:57.878Z,12.70
2022-08-29T10:40:10.169Z,12.70
2022-08-29T10:42:21.993Z,12.80
2022-08-29T10:44:38.105Z,12.90
2022-08-29T10:46:42.798Z,12.00
2022-08-29T10:48:44.492Z,12.00
2022-08-29T10:51:22.327Z,12.10
2022-08-29T10:53:46.077Z,12.00
2022-08-29T10:55:52.086Z,11.80
2022-08-29T10:57:59.926Z,11.60
2022-08-29T11:00:31.138Z,11.40
2022-08-29T11:02:43.315Z,11.20
2022-08-29T11:04:59.401Z,11.20
2022-08-29T11:07:06.861Z,10.30
2022-08-29T11:09:14.735Z,11.20
2022-08-29T11:11:21.636Z,11.50
2022-08-29T11:13:31.798Z,11.30
2022-08-29T11:15:45.153Z,11.30
2022-08-29T11:18:01.098Z,11.70
2022-08-29T11:20:20.374Z,10.90
2022-08-29T11:22:29.356Z,10.80
2022-08-29T11:24:34.857Z,10.40
2022-08-29T11:26:45.575Z,10.80
2022-08-29T11:28:53.105Z,10.80
2022-08-29T11:31:22.956Z,10.80
2022-08-29T11:33:46.154Z,11.10
2022-08-29T11:36:38.923Z,10.90
2022-08-29T11:38:59.375Z,11.20
2022-08-29T11:41:30.688Z,10.40
2022-08-29T11:43:40.273Z,9.90
2022-08-29T11:45:44.707Z,10.00
2022-08-29T11:47:46.405Z,10.30
2022-08-29T11:49:51.369Z,10.10
2022-08-29T11:52:17.786Z,10.00
2022-08-29T11:54:25.176Z,10.10
2022-08-29T11:56:30.400Z,9.40
2022-08-29T11:58:32.787Z,9.50
2022-08-29T12:00:41.480Z,8.90
2022-08-29T12:02:48.729Z,9.00
2022-08-29T12:04:55.315Z,9.30
2022-08-29T12:07:01.311Z,9.20
2022-08-29T12:09:58.415Z,9.10
2022-08-29T12:12:08.184Z,9.40
2022-08-29T12:14:35.557Z,9.20
2022-08-29T12:16:49.906Z,9.80
2022-08-29T12:18:56.384Z,9.50
2022-08-29T12:21:01.433Z,9.50
2022-08-29T12:23:11.528Z,9.20
2022-08-29T12:25:43.721Z,8.80
2022-08-29T12:28:18.271Z,9.60
2022-08-29T12:30:20.643Z,8.90
2022-08-29T12:32:43.899Z,9.10
2022-08-29T12:35:07.340Z,9.20
2022-08-29T12:37:26.600Z,9.10
2022-08-29T12:39:56.656Z,9.20
2022-08-29T12:42:26.301Z,8.80
2022-08-29T12:44:35.278Z,8.80
2022-08-29T12:46:40.440Z,8.40
2022-08-29T12:48:57.404Z,8.40
2022-08-29T12:51:00.732Z,8.40
2022-08-29T12:53:16.629Z,7.70
2022-08-29T12:55:29.441Z,7.90
2022-08-29T12:57:38.477Z,7.60
2022-08-29T12:59:53.633Z,7.70
2022-08-29T13:01:57.579Z,7.90
2022-08-29T13:04:03.238Z,7.80
2022-08-29T13:06:13.050Z,8.00
2022-08-29T13:08:27.692Z,7.40
2022-08-29T13:10:30.299Z,8.10
2022-08-29T13:12:35.243Z,7.70
2022-08-29T13:14:58.973Z,7.60
2022-08-29T13:17:01.037Z,6.80
2022-08-29T13:19:17.993Z,6.90
2022-08-29T13:21:24.982Z,7.00
2022-08-29T13:23:29.865Z,6.80
2022-08-29T13:25:34.415Z,6.60
2022-08-29T13:27:36.218Z,6.40
2022-08-29T13:29:42.346Z,6.80
2022-08-29T13:31:44.383Z,6.80
2022-08-29T13:33:46.159Z,6.90
2022-08-29T13:35:47.891Z,6.90
2022-08-29T13:38:09.576Z,6.90
2022-08-29T13:40:45.712Z,6.90
2022-08-29T13:42:47.525Z,7.00
2022-08-29T13:44:49.233Z,7.10
2022-08-29T13:46:52.669Z,7.40
2022-08-29T13:49:01.878Z,7.50
2022-08-29T13:51:06.650Z,7.40
2022-08-29T13:53:08.900Z,7.20
2022-08-29T13:55:10.993Z,7.20
2022-08-29T13:57:16.089Z,7.10
2022-08-29T13:59:21.566Z,6.90
2022-08-29T14:02:07.516Z,6.70
2022-08-29T14:03:52.696Z,6.50
2022-08-29T14:05:56.357Z,6.90
2022-08-29T14:07:58.181Z,6.70
2022-08-29T14:10:01.076Z,6.60
2022-08-29T14:12:03.863Z,6.50
2022-08-29T14:14:06.743Z,6.60
2022-08-29T14:16:10.380Z,6.40
2022-08-29T14:18:12.380Z,6.10
2022-08-29T14:20:15.514Z,6.10
2022-08-29T14:22:20.155Z,6.10
2022-08-29T14:24:22.727Z,6.20
2022-08-29T14:26:30.682Z,6.20
2022-08-29T14:28:35.707Z,6.30
2022-08-29T14:30:42.523Z,6.20
2022-08-29T14:32:54.045Z,6.30
2022-08-29T14:34:55.819Z,6.40
2022-08-29T14:36:58.364Z,5.80
2022-08-29T14:39:00.782Z,5.70
2022-08-29T14:41:02.661Z,5.90
2022-08-29T14:43:04.444Z,6.20
2022-08-29T14:45:10.710Z,6.10
2022-08-29T14:47:21.339Z,5.80
2022-08-29T14:49:23.179Z,5.50
2022-08-29T14:51:24.965Z,5.60
2022-08-29T14:53:37.889Z,5.60
2022-08-29T14:55:54.551Z,5.70
2022-08-29T14:57:59.021Z,5.70
2022-08-29T15:00:00.701Z,5.50
2022-08-29T15:02:10.026Z,6.00
2022-08-29T15:04:11.979Z,6.00
2022-08-29T15:06:15.855Z,6.00
2022-08-29T15:08:17.934Z,5.90
2022-08-29T15:10:26.975Z,5.90
2022-08-29T15:12:28.992Z,5.90
2022-08-29T15:14:31.218Z,5.80
2022-08-29T15:16:33.042Z,5.80
2022-08-29T15:19:24.519Z,5.80
2022-08-29T15:20:57.150Z,5.80
2022-08-29T15:22:59.950Z,5.80
2022-08-29T15:25:03.349Z,5.70
2022-08-29T15:27:05.840Z,5.70
2022-08-29T15:29:08.984Z,5.80
2022-08-29T15:31:11.003Z,5.80
2022-08-29T15:33:15.865Z,6.40
2022-08-29T15:35:20.159Z,5.90
2022-08-29T15:37:22.897Z,6.10
2022-08-29T15:39:29.275Z,6.20
2022-08-29T15:41:32.619Z,6.40
2022-08-29T15:43:36.815Z,6.10
2022-08-29T15:45:38.996Z,6.40
2022-08-29T15:47:46.040Z,6.60
2022-08-29T15:49:48.967Z,6.60
2022-08-29T15:51:54.398Z,6.70
2022-08-29T15:53:56.213Z,6.80
2022-08-29T15:55:58.113Z,6.60
2022-08-29T15:57:59.954Z,6.60
2022-08-29T16:00:01.914Z,6.30
2022-08-29T16:02:13.273Z,6.20
2022-08-29T16:04:17.931Z,6.50
2022-08-29T16:06:19.700Z,6.60
2022-08-29T16:08:22.441Z,6.40
2022-08-29T16:10:31.717Z,6.90
2022-08-29T16:12:33.834Z,6.30
2022-08-29T16:16:57.703Z,6.00
2022-08-29T16:18:59.627Z,6.40
2022-08-29T16:21:02.380Z,6.50
2022-08-29T16:23:07.931Z,6.40
2022-08-29T16:25:12.046Z,6.70
2022-08-29T16:27:26.974Z,6.80
2022-08-29T16:29:31.423Z,6.90
2022-08-29T16:31:33.804Z,6.90
2022-08-29T16:33:35.565Z,7.20
2022-08-29T16:35:37.266Z,7.10
2022-08-29T16:37:39.381Z,7.10
2022-08-29T16:39:41.192Z,7.20
2022-08-29T16:41:45.221Z,7.20
2022-08-29T16:43:52.046Z,7.30
2022-08-29T16:45:53.802Z,7.60
2022-08-29T16:47:57.704Z,7.50
2022-08-29T16:50:03.804Z,7.60
2022-08-29T16:52:06.175Z,7.90
2022-08-29T16:54:08.135Z,8.00
2022-08-29T16:56:14.057Z,8.00
2022-08-29T16:58:34.513Z,8.00
2022-08-29T17:00:39.941Z,8.20
2022-08-29T17:02:41.786Z,8.40
2022-08-29T17:04:43.668Z,8.50
2022-08-29T17:06:48.825Z,8.50
2022-08-29T17:08:50.753Z,8.50
2022-08-29T17:10:54.167Z,8.40
2022-08-29T17:12:55.948Z,8.50
2022-08-29T17:14:57.715Z,8.60
2022-08-29T17:17:00.533Z,8.70
2022-08-29T17:19:03.455Z,8.80
2022-08-29T17:21:06.321Z,8.80
2022-08-29T17:23:12.879Z,8.70
2022-08-29T17:25:14.659Z,8.90
2022-08-29T17:27:21.171Z,8.90
2022-08-29T17:29:25.991Z,8.90
2022-08-29T17:31:27.852Z,8.90
2022-08-29T17:33:32.519Z,8.90
2022-08-29T17:35:34.240Z,9.20
2022-08-29T17:37:37.888Z,9.30
2022-08-29T17:39:40.153Z,9.40
2022-08-29T17:41:42.973Z,9.50
2022-08-29T17:43:50.119Z,9.50
2022-08-29T17:45:54.525Z,9.40
2022-08-29T17:47:56.535Z,9.70
2022-08-29T17:49:58.285Z,9.70
2022-08-29T17:52:00.355Z,9.80
2022-08-29T17:54:03.400Z,9.80
2022-08-29T17:56:29.391Z,9.80
2022-08-29T17:58:31.131Z,9.80
2022-08-29T18:00:33.744Z,10.00
2022-08-29T18:02:37.990Z,10.00
2022-08-29T18:04:39.691Z,10.00
2022-08-29T18:06:42.143Z,10.20
2022-08-29T18:08:48.142Z,10.20
2022-08-29T18:10:50.396Z,10.10
2022-08-29T18:12:52.135Z,10.30
2022-08-29T18:14:56.349Z,10.40
2022-08-29T18:17:01.060Z,10.50
2022-08-29T18:19:03.844Z,10.60
2022-08-29T18:21:05.971Z,10.50
2022-08-29T18:23:08.109Z,10.60
2022-08-29T18:25:11.418Z,10.70
2022-08-29T18:27:13.161Z,10.70
2022-08-29T18:29:18.014Z,10.80
2022-08-29T18:31:20.300Z,10.90
2022-08-29T18:33:22.261Z,11.00
2022-08-29T18:35:25.347Z,11.00
2022-08-29T18:37:28.567Z,11.00
2022-08-29T18:39:30.611Z,11.10
2022-08-29T18:41:34.915Z,11.20
2022-08-29T18:43:39.661Z,11.20
2022-08-29T18:45:42.867Z,11.30
2022-08-29T18:47:44.834Z,11.20
2022-08-29T18:50:05.167Z,11.30
2022-08-29T18:52:07.083Z,11.60
2022-08-29T18:54:10.738Z,11.50
2022-08-29T18:56:12.688Z,11.60
2022-08-29T18:58:16.489Z,11.70
2022-08-29T19:00:18.909Z,11.70
2022-08-29T19:02:20.836Z,11.70
2022-08-29T19:04:25.435Z,11.80
2022-08-29T19:06:29.744Z,11.90
2022-08-29T19:08:32.170Z,12.10
2022-08-29T19:10:38.156Z,12.40
2022-08-29T19:12:40.231Z,12.10
2022-08-29T19:14:45.950Z,12.10
2022-08-29T19:16:50.967Z,12.10
2022-08-29T19:18:53.149Z,12.10
2022-08-29T19:21:06.238Z,12.00
2022-08-29T19:23:08.843Z,12.00
2022-08-29T19:25:10.840Z,12.00
2022-08-29T19:27:39.685Z,11.90
2022-08-29T19:29:38.706Z,11.90
2022-08-29T19:31:44.790Z,12.00
2022-08-29T19:33:48.376Z,12.00
2022-08-29T19:35:53.619Z,12.10
2022-08-29T19:37:55.824Z,12.20
2022-08-29T19:39:58.158Z,12.10
2022-08-29T19:42:00.096Z,12.20
2022-08-29T19:44:02.176Z,12.30
2022-08-29T19:46:14.379Z,12.40
2022-08-29T19:48:18.832Z,12.30
2022-08-29T19:50:23.507Z,12.40
2022-08-29T19:52:27.930Z,12.40
2022-08-29T19:54:30.923Z,12.40
2022-08-29T19:56:33.388Z,12.50
2022-08-29T19:58:36.378Z,12.40
2022-08-29T20:00:38.796Z,12.40
2022-08-29T20:02:42.898Z,12.50
2022-08-29T20:04:50.720Z,12.60
2022-08-29T20:06:53.938Z,12.60
2022-08-29T20:08:58.699Z,12.60
2022-08-29T20:11:01.210Z,12.60
2022-08-29T20:13:05.442Z,12.60
2022-08-29T20:15:10.146Z,12.50
2022-08-29T20:17:14.708Z,12.60
2022-08-29T20:19:18.798Z,12.70
2022-08-29T20:21:24.705Z,12.70
2022-08-29T20:23:27.431Z,12.80
2022-08-29T20:25:29.191Z,12.80
2022-08-29T20:27:34.405Z,12.90
2022-08-29T20:31:44.916Z,12.90
2022-08-29T20:33:48.218Z,12.90
2022-08-29T20:36:09.259Z,13.00
2022-08-29T20:38:11.533Z,13.00
2022-08-29T20:40:13.547Z,13.10
2022-08-29T20:42:18.209Z,13.10
2022-08-29T20:44:21.538Z,13.20
2022-08-29T20:46:23.341Z,13.30
2022-08-29T20:48:31.325Z,13.20
2022-08-29T20:50:35.447Z,13.20
2022-08-29T20:52:37.977Z,13.20
2022-08-29T20:54:39.765Z,13.40
2022-08-29T20:56:42.814Z,13.30
2022-08-29T20:58:45.357Z,13.30
2022-08-29T21:00:47.152Z,13.30
2022-08-29T21:03:08.120Z,13.30
2022-08-29T21:05:29.235Z,13.40
2022-08-29T21:07:31.009Z,13.40
2022-08-29T21:09:33.468Z,13.40
2022-08-29T21:11:35.218Z,13.50
2022-08-29T21:13:38.990Z,13.60
2022-08-29T21:15:41.978Z,13.60
2022-08-29T21:17:44.874Z,13.50
2022-08-29T21:19:46.805Z,14.10
2022-08-29T21:21:51.039Z,13.60
2022-08-29T21:23:55.101Z,13.70
2022-08-29T21:26:00.437Z,13.70
2022-08-29T21:28:04.193Z,13.70
2022-08-29T21:30:08.827Z,13.80
2022-08-29T21:32:10.612Z,13.70
2022-08-29T21:34:12.911Z,13.80
2022-08-29T21:36:20.424Z,13.70
2022-08-29T21:38:24.211Z,13.80
2022-08-29T21:40:26.146Z,13.80
2022-08-29T21:42:27.927Z,13.90
2022-08-29T21:44:29.881Z,13.90
2022-08-29T21:46:33.949Z,13.90
2022-08-29T21:48:37.236Z,14.00
2022-08-29T21:50:39.034Z,14.00
2022-08-29T21:52:40.752Z,14.10
2022-08-29T21:54:42.513Z,14.00
2022-08-29T21:56:45.295Z,14.10
2022-08-29T21:58:49.891Z,14.10
2022-08-29T22:00:51.623Z,14.10
2022-08-29T22:02:54.439Z,14.10
2022-08-29T22:04:56.210Z,14.20
2022-08-29T22:06:59.331Z,14.30
2022-08-29T22:09:03.191Z,14.30
2022-08-29T22:11:18.289Z,14.20
2022-08-29T22:13:22.569Z,14.20
2022-08-29T22:15:43.523Z,14.40
2022-08-29T22:17:45.300Z,14.40
2022-08-29T22:19:47.488Z,14.40
2022-08-29T22:21:54.448Z,14.50
2022-08-29T22:23:56.583Z,14.50
2022-08-29T22:26:02.989Z,14.50
2022-08-29T22:28:05.819Z,14.50
2022-08-29T22:30:08.840Z,14.60
2022-08-29T22:32:10.591Z,14.60
2022-08-29T22:34:16.629Z,14.60
2022-08-29T22:36:19.271Z,14.70
2022-08-29T22:38:21.047Z,14.80
2022-08-29T22:40:23.258Z,14.90
2022-08-29T22:42:25.072Z,14.80
2022-08-29T22:46:48.932Z,15.00
2022-08-29T22:48:53.429Z,15.10
2022-08-29T22:50:58.376Z,15.10
2022-08-29T22:53:01.907Z,15.10
2022-08-29T22:55:10.082Z,15.20
2022-08-29T22:57:16.721Z,15.20
2022-08-29T22:59:18.471Z,15.20
2022-08-29T23:01:20.417Z,15.20
2022-08-29T23:03:22.370Z,15.20
2022-08-29T23:05:24.845Z,15.30
2022-08-29T23:07:27.880Z,15.20
2022-08-29T23:09:35.014Z,15.30
2022-08-29T23:11:37.883Z,15.40
2022-08-29T23:13:42.280Z,15.30
2022-08-29T23:15:44.101Z,15.40
2022-08-29T23:17:46.188Z,15.40
2022-08-29T23:19:50.021Z,15.40
2022-08-29T23:21:56.050Z,15.50
2022-08-29T23:23:59.447Z,15.50
2022-08-29T23:26:01.423Z,15.40
2022-08-29T23:28:03.393Z,15.60
2022-08-29T23:30:08.282Z,15.50
2022-08-29T23:32:10.168Z,15.50
2022-08-29T23:34:14.367Z,15.50
2022-08-29T23:36:16.660Z,15.60
2022-08-29T23:38:18.994Z,15.50
2022-08-29T23:40:21.255Z,15.60
2022-08-29T23:42:27.291Z,15.60
2022-08-29T23:44:29.643Z,15.60
2022-08-29T23:46:31.461Z,15.60
2022-08-29T23:48:33.491Z,15.60
2022-08-29T23:50:38.844Z,15.70
2022-08-29T23:52:44.315Z,15.70
2022-08-29T23:54:46.053Z,15.80
2022-08-29T23:56:48.522Z,15.70
2022-08-29T23:58:50.872Z,15.60
